sensor_id;sensor_type;location;lat;lon;timestamp;P1;durP1;ratioP1;P2;durP2;ratioP2
32297;SDS011;18782;48.984;8.548;2023-07-24T00:00:39;8.45;;;5.60;;
32297;SDS011;18782;48.984;8.548;2023-07-24T00:03:07;7.55;;;4.97;;
32297;SDS011;18782;48.984;8.548;2023-07-24T00:05:35;7.25;;;5.07;;
32297;SDS011;18782;48.984;8.548;2023-07-24T00:08:03;7.85;;;5.10;;
32297;SDS011;18782;48.984;8.548;2023-07-24T00:10:31;6.32;;;5.10;;
32297;SDS011;18782;48.984;8.548;2023-07-24T00:12:58;8.88;;;5.00;;
32297;SDS011;18782;48.984;8.548;2023-07-24T00:15:28;9.40;;;5.30;;
32297;SDS011;18782;48.984;8.548;2023-07-24T00:17:56;7.55;;;5.13;;
32297;SDS011;18782;48.984;8.548;2023-07-24T00:20:24;8.57;;;5.20;;
32297;SDS011;18782;48.984;8.548;2023-07-24T00:22:52;7.93;;;5.22;;
32297;SDS011;18782;48.984;8.548;2023-07-24T00:25:20;7.22;;;4.78;;
32297;SDS011;18782;48.984;8.548;2023-07-24T00:27:47;8.13;;;5.13;;
32297;SDS011;18782;48.984;8.548;2023-07-24T00:30:15;7.53;;;5.20;;
32297;SDS011;18782;48.984;8.548;2023-07-24T00:32:44;9.00;;;5.45;;
32297;SDS011;18782;48.984;8.548;2023-07-24T00:35:12;9.30;;;5.55;;
32297;SDS011;18782;48.984;8.548;2023-07-24T00:37:39;8.77;;;5.82;;
32297;SDS011;18782;48.984;8.548;2023-07-24T00:40:07;7.78;;;4.93;;
32297;SDS011;18782;48.984;8.548;2023-07-24T00:42:35;7.38;;;5.32;;
32297;SDS011;18782;48.984;8.548;2023-07-24T00:45:04;7.55;;;5.60;;
32297;SDS011;18782;48.984;8.548;2023-07-24T00:47:32;6.78;;;4.53;;
32297;SDS011;18782;48.984;8.548;2023-07-24T00:50:02;8.02;;;5.60;;
32297;SDS011;18782;48.984;8.548;2023-07-24T00:52:30;8.80;;;4.97;;
32297;SDS011;18782;48.984;8.548;2023-07-24T00:54:57;8.05;;;5.20;;
32297;SDS011;18782;48.984;8.548;2023-07-24T00:57:25;7.88;;;5.10;;
32297;SDS011;18782;48.984;8.548;2023-07-24T00:59:53;7.25;;;5.15;;
32297;SDS011;18782;48.984;8.548;2023-07-24T01:02:22;7.93;;;5.10;;
32297;SDS011;18782;48.984;8.548;2023-07-24T01:04:50;8.07;;;5.32;;
32297;SDS011;18782;48.984;8.548;2023-07-24T01:07:20;10.48;;;5.30;;
32297;SDS011;18782;48.984;8.548;2023-07-24T01:09:47;8.38;;;5.30;;
32297;SDS011;18782;48.984;8.548;2023-07-24T01:12:19;7.40;;;5.05;;
32297;SDS011;18782;48.984;8.548;2023-07-24T01:14:58;8.88;;;5.82;;
32297;SDS011;18782;48.984;8.548;2023-07-24T01:17:34;6.70;;;4.95;;
32297;SDS011;18782;48.984;8.548;2023-07-24T01:20:06;8.95;;;5.55;;
32297;SDS011;18782;48.984;8.548;2023-07-24T01:22:43;10.50;;;5.13;;
32297;SDS011;18782;48.984;8.548;2023-07-24T01:25:23;6.85;;;4.93;;
32297;SDS011;18782;48.984;8.548;2023-07-24T01:27:58;9.27;;;5.63;;
32297;SDS011;18782;48.984;8.548;2023-07-24T01:30:26;7.70;;;5.47;;
32297;SDS011;18782;48.984;8.548;2023-07-24T01:32:54;8.35;;;6.20;;
32297;SDS011;18782;48.984;8.548;2023-07-24T01:35:22;8.25;;;5.05;;
32297;SDS011;18782;48.984;8.548;2023-07-24T01:37:50;6.50;;;5.15;;
32297;SDS011;18782;48.984;8.548;2023-07-24T01:40:19;10.95;;;5.53;;
32297;SDS011;18782;48.984;8.548;2023-07-24T01:42:48;7.65;;;5.53;;
32297;SDS011;18782;48.984;8.548;2023-07-24T01:45:18;7.05;;;5.13;;
32297;SDS011;18782;48.984;8.548;2023-07-24T01:47:46;7.25;;;5.32;;
32297;SDS011;18782;48.984;8.548;2023-07-24T01:50:13;8.98;;;6.00;;
32297;SDS011;18782;48.984;8.548;2023-07-24T01:52:41;8.00;;;5.60;;
32297;SDS011;18782;48.984;8.548;2023-07-24T01:55:10;7.70;;;5.55;;
32297;SDS011;18782;48.984;8.548;2023-07-24T01:57:38;6.63;;;4.82;;
32297;SDS011;18782;48.984;8.548;2023-07-24T02:00:06;8.43;;;5.50;;
32297;SDS011;18782;48.984;8.548;2023-07-24T02:06:42;9.02;;;5.40;;
32297;SDS011;18782;48.984;8.548;2023-07-24T02:09:10;6.68;;;4.55;;
32297;SDS011;18782;48.984;8.548;2023-07-24T02:11:38;8.40;;;5.03;;
32297;SDS011;18782;48.984;8.548;2023-07-24T02:14:05;9.35;;;5.38;;
32297;SDS011;18782;48.984;8.548;2023-07-24T02:16:33;8.50;;;5.43;;
32297;SDS011;18782;48.984;8.548;2023-07-24T02:19:01;7.50;;;5.45;;
32297;SDS011;18782;48.984;8.548;2023-07-24T02:21:30;8.70;;;5.53;;
32297;SDS011;18782;48.984;8.548;2023-07-24T02:23:59;7.25;;;5.63;;
32297;SDS011;18782;48.984;8.548;2023-07-24T02:26:26;7.07;;;4.95;;
32297;SDS011;18782;48.984;8.548;2023-07-24T02:28:54;7.20;;;5.63;;
32297;SDS011;18782;48.984;8.548;2023-07-24T02:31:22;10.40;;;5.45;;
32297;SDS011;18782;48.984;8.548;2023-07-24T02:33:50;8.77;;;5.35;;
32297;SDS011;18782;48.984;8.548;2023-07-24T02:36:17;9.40;;;5.85;;
32297;SDS011;18782;48.984;8.548;2023-07-24T02:38:45;9.98;;;7.43;;
32297;SDS011;18782;48.984;8.548;2023-07-24T02:41:14;10.00;;;6.68;;
32297;SDS011;18782;48.984;8.548;2023-07-24T02:43:41;8.77;;;6.18;;
32297;SDS011;18782;48.984;8.548;2023-07-24T02:46:09;8.27;;;5.35;;
32297;SDS011;18782;48.984;8.548;2023-07-24T02:48:37;7.03;;;5.03;;
32297;SDS011;18782;48.984;8.548;2023-07-24T02:51:04;7.75;;;5.53;;
32297;SDS011;18782;48.984;8.548;2023-07-24T02:53:32;9.35;;;5.72;;
32297;SDS011;18782;48.984;8.548;2023-07-24T02:56:00;7.10;;;5.65;;
32297;SDS011;18782;48.984;8.548;2023-07-24T02:58:30;7.20;;;5.32;;
32297;SDS011;18782;48.984;8.548;2023-07-24T03:01:02;10.25;;;5.88;;
32297;SDS011;18782;48.984;8.548;2023-07-24T03:03:30;11.88;;;8.38;;
32297;SDS011;18782;48.984;8.548;2023-07-24T03:05:58;11.05;;;7.50;;
32297;SDS011;18782;48.984;8.548;2023-07-24T03:08:26;8.15;;;5.85;;
32297;SDS011;18782;48.984;8.548;2023-07-24T03:10:53;7.45;;;5.60;;
32297;SDS011;18782;48.984;8.548;2023-07-24T03:13:21;8.82;;;6.32;;
32297;SDS011;18782;48.984;8.548;2023-07-24T03:15:53;6.57;;;5.28;;
32297;SDS011;18782;48.984;8.548;2023-07-24T03:18:21;10.88;;;6.22;;
32297;SDS011;18782;48.984;8.548;2023-07-24T03:20:49;8.15;;;5.78;;
32297;SDS011;18782;48.984;8.548;2023-07-24T03:23:17;8.55;;;6.05;;
32297;SDS011;18782;48.984;8.548;2023-07-24T03:25:45;8.52;;;5.93;;
32297;SDS011;18782;48.984;8.548;2023-07-24T03:28:12;10.43;;;6.32;;
32297;SDS011;18782;48.984;8.548;2023-07-24T03:30:40;9.85;;;6.68;;
32297;SDS011;18782;48.984;8.548;2023-07-24T03:33:09;8.40;;;6.00;;
32297;SDS011;18782;48.984;8.548;2023-07-24T03:35:38;9.32;;;5.97;;
32297;SDS011;18782;48.984;8.548;2023-07-24T03:38:07;8.02;;;5.55;;
32297;SDS011;18782;48.984;8.548;2023-07-24T03:40:34;9.77;;;6.18;;
32297;SDS011;18782;48.984;8.548;2023-07-24T03:43:03;9.65;;;6.30;;
32297;SDS011;18782;48.984;8.548;2023-07-24T03:45:30;7.47;;;5.82;;
32297;SDS011;18782;48.984;8.548;2023-07-24T03:47:58;8.45;;;5.82;;
32297;SDS011;18782;48.984;8.548;2023-07-24T03:50:28;10.10;;;6.32;;
32297;SDS011;18782;48.984;8.548;2023-07-24T03:52:56;10.60;;;7.25;;
32297;SDS011;18782;48.984;8.548;2023-07-24T03:55:24;8.30;;;6.28;;
32297;SDS011;18782;48.984;8.548;2023-07-24T03:57:51;8.95;;;6.30;;
32297;SDS011;18782;48.984;8.548;2023-07-24T04:00:19;9.80;;;5.88;;
32297;SDS011;18782;48.984;8.548;2023-07-24T04:02:47;8.07;;;6.10;;
32297;SDS011;18782;48.984;8.548;2023-07-24T04:05:15;9.20;;;5.70;;
32297;SDS011;18782;48.984;8.548;2023-07-24T04:07:44;8.90;;;6.05;;
32297;SDS011;18782;48.984;8.548;2023-07-24T04:10:11;7.78;;;6.40;;
32297;SDS011;18782;48.984;8.548;2023-07-24T04:12:39;9.32;;;6.25;;
32297;SDS011;18782;48.984;8.548;2023-07-24T04:15:07;9.50;;;5.90;;
32297;SDS011;18782;48.984;8.548;2023-07-24T04:17:35;9.40;;;6.47;;
32297;SDS011;18782;48.984;8.548;2023-07-24T04:20:05;8.63;;;6.25;;
32297;SDS011;18782;48.984;8.548;2023-07-24T04:22:34;8.80;;;6.28;;
32297;SDS011;18782;48.984;8.548;2023-07-24T04:25:03;8.15;;;5.80;;
32297;SDS011;18782;48.984;8.548;2023-07-24T04:27:31;11.98;;;5.90;;
32297;SDS011;18782;48.984;8.548;2023-07-24T04:29:58;8.02;;;6.07;;
32297;SDS011;18782;48.984;8.548;2023-07-24T04:32:26;9.77;;;6.30;;
32297;SDS011;18782;48.984;8.548;2023-07-24T04:34:54;8.60;;;5.88;;
32297;SDS011;18782;48.984;8.548;2023-07-24T04:37:22;8.77;;;5.43;;
32297;SDS011;18782;48.984;8.548;2023-07-24T04:39:49;8.55;;;5.85;;
32297;SDS011;18782;48.984;8.548;2023-07-24T04:42:18;8.70;;;6.00;;
32297;SDS011;18782;48.984;8.548;2023-07-24T04:44:46;9.50;;;6.18;;
32297;SDS011;18782;48.984;8.548;2023-07-24T04:47:14;9.63;;;6.75;;
32297;SDS011;18782;48.984;8.548;2023-07-24T04:49:41;7.38;;;5.70;;
32297;SDS011;18782;48.984;8.548;2023-07-24T04:52:09;8.80;;;6.47;;
32297;SDS011;18782;48.984;8.548;2023-07-24T04:54:37;8.88;;;6.10;;
32297;SDS011;18782;48.984;8.548;2023-07-24T04:57:04;7.80;;;5.72;;
32297;SDS011;18782;48.984;8.548;2023-07-24T04:59:34;7.57;;;6.00;;
32297;SDS011;18782;48.984;8.548;2023-07-24T05:02:01;10.05;;;5.80;;
32297;SDS011;18782;48.984;8.548;2023-07-24T05:04:29;11.30;;;6.28;;
32297;SDS011;18782;48.984;8.548;2023-07-24T05:06:57;8.10;;;6.03;;
32297;SDS011;18782;48.984;8.548;2023-07-24T05:09:24;9.63;;;6.45;;
32297;SDS011;18782;48.984;8.548;2023-07-24T05:11:52;9.10;;;5.90;;
32297;SDS011;18782;48.984;8.548;2023-07-24T05:14:20;7.57;;;5.70;;
32297;SDS011;18782;48.984;8.548;2023-07-24T05:16:49;8.90;;;6.28;;
32297;SDS011;18782;48.984;8.548;2023-07-24T05:19:16;10.93;;;6.80;;
32297;SDS011;18782;48.984;8.548;2023-07-24T05:21:44;9.30;;;6.78;;
32297;SDS011;18782;48.984;8.548;2023-07-24T05:24:12;8.27;;;5.68;;
32297;SDS011;18782;48.984;8.548;2023-07-24T05:26:40;10.25;;;6.35;;
32297;SDS011;18782;48.984;8.548;2023-07-24T05:29:07;9.32;;;6.45;;
32297;SDS011;18782;48.984;8.548;2023-07-24T05:31:35;8.93;;;6.63;;
32297;SDS011;18782;48.984;8.548;2023-07-24T05:34:04;7.43;;;5.75;;
32297;SDS011;18782;48.984;8.548;2023-07-24T05:36:32;8.85;;;6.30;;
32297;SDS011;18782;48.984;8.548;2023-07-24T05:38:59;8.57;;;6.40;;
32297;SDS011;18782;48.984;8.548;2023-07-24T05:41:27;8.38;;;6.60;;
32297;SDS011;18782;48.984;8.548;2023-07-24T05:43:54;9.63;;;5.70;;
32297;SDS011;18782;48.984;8.548;2023-07-24T05:46:22;9.05;;;6.30;;
32297;SDS011;18782;48.984;8.548;2023-07-24T05:48:50;8.65;;;5.82;;
32297;SDS011;18782;48.984;8.548;2023-07-24T05:51:20;9.18;;;6.28;;
32297;SDS011;18782;48.984;8.548;2023-07-24T05:53:47;8.73;;;6.18;;
32297;SDS011;18782;48.984;8.548;2023-07-24T05:56:15;9.05;;;6.15;;
32297;SDS011;18782;48.984;8.548;2023-07-24T05:58:43;10.27;;;6.70;;
32297;SDS011;18782;48.984;8.548;2023-07-24T06:01:10;8.50;;;6.43;;
32297;SDS011;18782;48.984;8.548;2023-07-24T06:03:38;8.45;;;5.90;;
32297;SDS011;18782;48.984;8.548;2023-07-24T06:06:06;9.38;;;7.22;;
32297;SDS011;18782;48.984;8.548;2023-07-24T06:08:35;12.85;;;10.32;;
32297;SDS011;18782;48.984;8.548;2023-07-24T06:11:02;15.15;;;11.00;;
32297;SDS011;18782;48.984;8.548;2023-07-24T06:13:30;10.13;;;7.53;;
32297;SDS011;18782;48.984;8.548;2023-07-24T06:15:58;10.50;;;6.75;;
32297;SDS011;18782;48.984;8.548;2023-07-24T06:18:25;10.95;;;6.85;;
32297;SDS011;18782;48.984;8.548;2023-07-24T06:20:53;11.23;;;7.65;;
32297;SDS011;18782;48.984;8.548;2023-07-24T06:23:21;16.38;;;9.75;;
32297;SDS011;18782;48.984;8.548;2023-07-24T06:25:50;11.10;;;6.70;;
32297;SDS011;18782;48.984;8.548;2023-07-24T06:28:19;10.05;;;6.28;;
32297;SDS011;18782;48.984;8.548;2023-07-24T06:30:46;10.73;;;7.22;;
32297;SDS011;18782;48.984;8.548;2023-07-24T06:33:14;11.95;;;6.95;;
32297;SDS011;18782;48.984;8.548;2023-07-24T06:35:42;9.63;;;6.75;;
32297;SDS011;18782;48.984;8.548;2023-07-24T06:38:09;9.00;;;6.25;;
32297;SDS011;18782;48.984;8.548;2023-07-24T06:40:37;9.73;;;6.43;;
32297;SDS011;18782;48.984;8.548;2023-07-24T06:43:06;8.60;;;5.80;;
32297;SDS011;18782;48.984;8.548;2023-07-24T06:45:34;9.38;;;6.18;;
32297;SDS011;18782;48.984;8.548;2023-07-24T06:48:02;7.15;;;6.13;;
32297;SDS011;18782;48.984;8.548;2023-07-24T06:50:30;9.98;;;6.75;;
32297;SDS011;18782;48.984;8.548;2023-07-24T06:52:57;7.43;;;5.95;;
32297;SDS011;18782;48.984;8.548;2023-07-24T06:55:25;7.07;;;5.75;;
32297;SDS011;18782;48.984;8.548;2023-07-24T06:57:52;10.30;;;6.40;;
32297;SDS011;18782;48.984;8.548;2023-07-24T07:00:22;9.82;;;6.18;;
32297;SDS011;18782;48.984;8.548;2023-07-24T07:02:49;10.07;;;6.28;;
32297;SDS011;18782;48.984;8.548;2023-07-24T07:05:17;9.98;;;6.57;;
32297;SDS011;18782;48.984;8.548;2023-07-24T07:07:45;8.13;;;6.47;;
32297;SDS011;18782;48.984;8.548;2023-07-24T07:10:12;7.63;;;6.03;;
32297;SDS011;18782;48.984;8.548;2023-07-24T07:12:40;16.20;;;6.97;;
32297;SDS011;18782;48.984;8.548;2023-07-24T07:15:08;21.52;;;7.80;;
32297;SDS011;18782;48.984;8.548;2023-07-24T07:17:37;9.07;;;6.20;;
32297;SDS011;18782;48.984;8.548;2023-07-24T07:20:06;12.50;;;6.95;;
32297;SDS011;18782;48.984;8.548;2023-07-24T07:22:34;10.43;;;6.97;;
32297;SDS011;18782;48.984;8.548;2023-07-24T07:25:01;11.20;;;6.57;;
32297;SDS011;18782;48.984;8.548;2023-07-24T07:27:29;8.30;;;6.05;;
32297;SDS011;18782;48.984;8.548;2023-07-24T07:29:57;11.20;;;6.40;;
32297;SDS011;18782;48.984;8.548;2023-07-24T07:32:24;12.35;;;6.65;;
32297;SDS011;18782;48.984;8.548;2023-07-24T07:34:54;8.13;;;6.00;;
32297;SDS011;18782;48.984;8.548;2023-07-24T07:37:22;10.55;;;7.20;;
32297;SDS011;18782;48.984;8.548;2023-07-24T07:39:49;7.85;;;6.15;;
32297;SDS011;18782;48.984;8.548;2023-07-24T07:42:17;8.90;;;6.78;;
32297;SDS011;18782;48.984;8.548;2023-07-24T07:44:45;8.40;;;6.28;;
32297;SDS011;18782;48.984;8.548;2023-07-24T07:47:13;9.85;;;6.22;;
32297;SDS011;18782;48.984;8.548;2023-07-24T07:49:40;11.18;;;7.32;;
32297;SDS011;18782;48.984;8.548;2023-07-24T07:52:10;8.63;;;5.88;;
32297;SDS011;18782;48.984;8.548;2023-07-24T07:54:38;10.27;;;6.30;;
32297;SDS011;18782;48.984;8.548;2023-07-24T07:57:06;9.35;;;6.28;;
32297;SDS011;18782;48.984;8.548;2023-07-24T07:59:34;11.23;;;6.88;;
32297;SDS011;18782;48.984;8.548;2023-07-24T08:02:02;7.70;;;5.65;;
32297;SDS011;18782;48.984;8.548;2023-07-24T08:04:30;11.88;;;7.13;;
32297;SDS011;18782;48.984;8.548;2023-07-24T08:06:58;9.13;;;6.25;;
32297;SDS011;18782;48.984;8.548;2023-07-24T08:09:27;10.48;;;6.35;;
32297;SDS011;18782;48.984;8.548;2023-07-24T08:11:55;8.73;;;6.85;;
32297;SDS011;18782;48.984;8.548;2023-07-24T08:14:22;10.77;;;7.20;;
32297;SDS011;18782;48.984;8.548;2023-07-24T08:16:50;18.60;;;15.77;;
32297;SDS011;18782;48.984;8.548;2023-07-24T08:19:19;12.23;;;8.40;;
32297;SDS011;18782;48.984;8.548;2023-07-24T08:21:47;9.43;;;7.07;;
32297;SDS011;18782;48.984;8.548;2023-07-24T08:24:14;11.02;;;6.32;;
32297;SDS011;18782;48.984;8.548;2023-07-24T08:26:43;10.82;;;7.28;;
32297;SDS011;18782;48.984;8.548;2023-07-24T08:29:11;10.73;;;7.35;;
32297;SDS011;18782;48.984;8.548;2023-07-24T08:31:39;11.10;;;6.85;;
32297;SDS011;18782;48.984;8.548;2023-07-24T08:34:07;11.57;;;7.53;;
32297;SDS011;18782;48.984;8.548;2023-07-24T08:36:35;9.55;;;6.57;;
32297;SDS011;18782;48.984;8.548;2023-07-24T08:39:03;11.68;;;7.07;;
32297;SDS011;18782;48.984;8.548;2023-07-24T08:41:31;9.80;;;6.95;;
32297;SDS011;18782;48.984;8.548;2023-07-24T08:44:02;9.38;;;6.70;;
32297;SDS011;18782;48.984;8.548;2023-07-24T08:46:31;7.65;;;6.03;;
32297;SDS011;18782;48.984;8.548;2023-07-24T08:49:02;11.15;;;7.03;;
32297;SDS011;18782;48.984;8.548;2023-07-24T08:51:30;9.63;;;7.00;;
32297;SDS011;18782;48.984;8.548;2023-07-24T08:53:59;8.73;;;6.55;;
32297;SDS011;18782;48.984;8.548;2023-07-24T08:56:28;10.30;;;6.68;;
32297;SDS011;18782;48.984;8.548;2023-07-24T08:58:56;10.88;;;7.10;;
32297;SDS011;18782;48.984;8.548;2023-07-24T09:01:25;8.77;;;6.13;;
32297;SDS011;18782;48.984;8.548;2023-07-24T09:03:53;11.38;;;7.72;;
32297;SDS011;18782;48.984;8.548;2023-07-24T09:06:21;9.98;;;7.07;;
32297;SDS011;18782;48.984;8.548;2023-07-24T09:08:48;9.80;;;7.20;;
32297;SDS011;18782;48.984;8.548;2023-07-24T09:11:20;8.88;;;6.55;;
32297;SDS011;18782;48.984;8.548;2023-07-24T09:13:48;9.43;;;6.82;;
32297;SDS011;18782;48.984;8.548;2023-07-24T09:16:23;9.40;;;7.32;;
32297;SDS011;18782;48.984;8.548;2023-07-24T09:18:53;8.65;;;6.72;;
32297;SDS011;18782;48.984;8.548;2023-07-24T09:21:36;9.30;;;6.97;;
32297;SDS011;18782;48.984;8.548;2023-07-24T09:24:10;9.25;;;6.68;;
32297;SDS011;18782;48.984;8.548;2023-07-24T09:26:49;8.65;;;6.63;;
32297;SDS011;18782;48.984;8.548;2023-07-24T09:31:57;8.35;;;6.43;;
32297;SDS011;18782;48.984;8.548;2023-07-24T09:34:27;8.82;;;6.63;;
32297;SDS011;18782;48.984;8.548;2023-07-24T09:36:55;9.50;;;6.88;;
32297;SDS011;18782;48.984;8.548;2023-07-24T09:39:23;10.95;;;6.38;;
32297;SDS011;18782;48.984;8.548;2023-07-24T09:41:51;9.15;;;6.25;;
32297;SDS011;18782;48.984;8.548;2023-07-24T09:44:19;7.65;;;5.75;;
32297;SDS011;18782;48.984;8.548;2023-07-24T09:46:46;9.25;;;6.63;;
32297;SDS011;18782;48.984;8.548;2023-07-24T09:49:35;7.70;;;5.93;;
32297;SDS011;18782;48.984;8.548;2023-07-24T09:52:04;9.50;;;5.65;;
32297;SDS011;18782;48.984;8.548;2023-07-24T09:54:37;8.38;;;5.53;;
32297;SDS011;18782;48.984;8.548;2023-07-24T09:57:12;9.68;;;6.30;;
32297;SDS011;18782;48.984;8.548;2023-07-24T09:59:47;8.90;;;5.63;;
32297;SDS011;18782;48.984;8.548;2023-07-24T10:02:17;7.90;;;6.13;;
32297;SDS011;18782;48.984;8.548;2023-07-24T10:04:46;10.20;;;6.78;;
32297;SDS011;18782;48.984;8.548;2023-07-24T10:07:15;10.13;;;7.05;;
32297;SDS011;18782;48.984;8.548;2023-07-24T10:09:43;8.60;;;6.38;;
32297;SDS011;18782;48.984;8.548;2023-07-24T10:12:12;11.43;;;8.15;;
32297;SDS011;18782;48.984;8.548;2023-07-24T10:14:39;10.32;;;6.90;;
32297;SDS011;18782;48.984;8.548;2023-07-24T10:17:07;7.60;;;5.80;;
32297;SDS011;18782;48.984;8.548;2023-07-24T10:19:36;7.55;;;6.10;;
32297;SDS011;18782;48.984;8.548;2023-07-24T10:22:07;9.73;;;6.60;;
32297;SDS011;18782;48.984;8.548;2023-07-24T10:24:36;8.80;;;6.60;;
32297;SDS011;18782;48.984;8.548;2023-07-24T10:27:08;7.82;;;6.40;;
32297;SDS011;18782;48.984;8.548;2023-07-24T10:29:36;8.90;;;6.32;;
32297;SDS011;18782;48.984;8.548;2023-07-24T10:32:04;8.95;;;6.40;;
32297;SDS011;18782;48.984;8.548;2023-07-24T10:34:43;9.25;;;6.82;;
32297;SDS011;18782;48.984;8.548;2023-07-24T10:37:12;8.48;;;6.60;;
32297;SDS011;18782;48.984;8.548;2023-07-24T10:39:40;8.18;;;6.82;;
32297;SDS011;18782;48.984;8.548;2023-07-24T10:42:08;8.18;;;5.82;;
32297;SDS011;18782;48.984;8.548;2023-07-24T10:44:37;8.23;;;5.28;;
32297;SDS011;18782;48.984;8.548;2023-07-24T10:47:05;8.77;;;6.00;;
32297;SDS011;18782;48.984;8.548;2023-07-24T10:49:33;7.13;;;6.32;;
32297;SDS011;18782;48.984;8.548;2023-07-24T10:52:01;7.72;;;6.00;;
32297;SDS011;18782;48.984;8.548;2023-07-24T10:54:31;6.85;;;5.75;;
32297;SDS011;18782;48.984;8.548;2023-07-24T10:56:59;11.52;;;7.25;;
32297;SDS011;18782;48.984;8.548;2023-07-24T10:59:37;8.95;;;7.57;;
32297;SDS011;18782;48.984;8.548;2023-07-24T11:02:05;10.25;;;7.30;;
32297;SDS011;18782;48.984;8.548;2023-07-24T11:04:34;9.13;;;5.50;;
32297;SDS011;18782;48.984;8.548;2023-07-24T11:07:02;6.00;;;5.38;;
32297;SDS011;18782;48.984;8.548;2023-07-24T11:09:38;8.93;;;5.85;;
32297;SDS011;18782;48.984;8.548;2023-07-24T11:12:11;7.53;;;5.68;;
32297;SDS011;18782;48.984;8.548;2023-07-24T11:18:52;7.28;;;5.15;;
32297;SDS011;18782;48.984;8.548;2023-07-24T11:21:22;8.60;;;5.93;;
32297;SDS011;18782;48.984;8.548;2023-07-24T11:23:51;9.00;;;5.18;;
32297;SDS011;18782;48.984;8.548;2023-07-24T11:26:21;7.18;;;5.00;;
32297;SDS011;18782;48.984;8.548;2023-07-24T11:28:51;6.75;;;5.03;;
32297;SDS011;18782;48.984;8.548;2023-07-24T11:31:19;6.70;;;5.22;;
32297;SDS011;18782;48.984;8.548;2023-07-24T11:33:48;6.85;;;5.00;;
32297;SDS011;18782;48.984;8.548;2023-07-24T11:36:17;8.18;;;5.28;;
32297;SDS011;18782;48.984;8.548;2023-07-24T11:38:45;8.85;;;5.90;;
32297;SDS011;18782;48.984;8.548;2023-07-24T11:41:13;6.28;;;5.25;;
32297;SDS011;18782;48.984;8.548;2023-07-24T11:43:46;7.47;;;5.65;;
32297;SDS011;18782;48.984;8.548;2023-07-24T11:48:50;8.52;;;5.60;;
32297;SDS011;18782;48.984;8.548;2023-07-24T11:51:19;6.85;;;5.07;;
32297;SDS011;18782;48.984;8.548;2023-07-24T11:53:47;8.20;;;5.60;;
32297;SDS011;18782;48.984;8.548;2023-07-24T11:56:19;7.63;;;5.47;;
32297;SDS011;18782;48.984;8.548;2023-07-24T11:58:49;6.53;;;5.60;;
32297;SDS011;18782;48.984;8.548;2023-07-24T12:01:17;6.00;;;5.03;;
32297;SDS011;18782;48.984;8.548;2023-07-24T12:03:44;6.50;;;5.20;;
32297;SDS011;18782;48.984;8.548;2023-07-24T12:06:14;9.02;;;6.03;;
32297;SDS011;18782;48.984;8.548;2023-07-24T12:08:43;6.95;;;5.15;;
32297;SDS011;18782;48.984;8.548;2023-07-24T12:11:17;7.80;;;5.68;;
32297;SDS011;18782;48.984;8.548;2023-07-24T12:13:45;8.20;;;5.60;;
32297;SDS011;18782;48.984;8.548;2023-07-24T12:16:15;7.50;;;5.88;;
32297;SDS011;18782;48.984;8.548;2023-07-24T12:18:42;7.43;;;5.60;;
32297;SDS011;18782;48.984;8.548;2023-07-24T12:21:10;7.15;;;5.43;;
32297;SDS011;18782;48.984;8.548;2023-07-24T12:23:37;6.60;;;5.50;;
32297;SDS011;18782;48.984;8.548;2023-07-24T12:26:05;7.53;;;5.28;;
32297;SDS011;18782;48.984;8.548;2023-07-24T12:28:33;8.95;;;5.18;;
32297;SDS011;18782;48.984;8.548;2023-07-24T12:31:01;6.30;;;4.68;;
32297;SDS011;18782;48.984;8.548;2023-07-24T12:33:31;6.35;;;5.10;;
32297;SDS011;18782;48.984;8.548;2023-07-24T12:35:59;7.35;;;4.90;;
32297;SDS011;18782;48.984;8.548;2023-07-24T12:38:27;6.95;;;5.00;;
32297;SDS011;18782;48.984;8.548;2023-07-24T12:40:56;6.70;;;5.25;;
32297;SDS011;18782;48.984;8.548;2023-07-24T12:43:24;6.18;;;5.18;;
32297;SDS011;18782;48.984;8.548;2023-07-24T12:45:51;6.13;;;4.82;;
32297;SDS011;18782;48.984;8.548;2023-07-24T12:48:19;6.05;;;5.13;;
32297;SDS011;18782;48.984;8.548;2023-07-24T12:50:48;5.72;;;4.93;;
32297;SDS011;18782;48.984;8.548;2023-07-24T12:53:16;5.82;;;4.88;;
32297;SDS011;18782;48.984;8.548;2023-07-24T12:55:52;6.65;;;5.40;;
32297;SDS011;18782;48.984;8.548;2023-07-24T12:58:20;6.95;;;5.38;;
32297;SDS011;18782;48.984;8.548;2023-07-24T13:00:47;6.35;;;5.22;;
32297;SDS011;18782;48.984;8.548;2023-07-24T13:03:15;7.13;;;5.07;;
32297;SDS011;18782;48.984;8.548;2023-07-24T13:05:43;7.85;;;5.72;;
32297;SDS011;18782;48.984;8.548;2023-07-24T13:08:13;5.95;;;5.18;;
32297;SDS011;18782;48.984;8.548;2023-07-24T13:10:42;8.43;;;4.78;;
32297;SDS011;18782;48.984;8.548;2023-07-24T13:13:10;6.85;;;4.68;;
32297;SDS011;18782;48.984;8.548;2023-07-24T13:15:38;6.10;;;5.03;;
32297;SDS011;18782;48.984;8.548;2023-07-24T13:18:06;5.68;;;4.40;;
32297;SDS011;18782;48.984;8.548;2023-07-24T13:20:53;7.88;;;5.07;;
32297;SDS011;18782;48.984;8.548;2023-07-24T13:23:22;6.03;;;4.78;;
32297;SDS011;18782;48.984;8.548;2023-07-24T13:25:51;4.82;;;4.32;;
32297;SDS011;18782;48.984;8.548;2023-07-24T13:28:19;6.88;;;4.45;;
32297;SDS011;18782;48.984;8.548;2023-07-24T13:30:47;6.07;;;5.10;;
32297;SDS011;18782;48.984;8.548;2023-07-24T13:33:14;7.50;;;4.18;;
32297;SDS011;18782;48.984;8.548;2023-07-24T13:35:42;6.15;;;4.63;;
32297;SDS011;18782;48.984;8.548;2023-07-24T13:38:10;5.65;;;4.65;;
32297;SDS011;18782;48.984;8.548;2023-07-24T13:40:39;6.78;;;4.30;;
32297;SDS011;18782;48.984;8.548;2023-07-24T13:43:07;7.32;;;4.80;;
32297;SDS011;18782;48.984;8.548;2023-07-24T13:45:35;6.40;;;4.60;;
32297;SDS011;18782;48.984;8.548;2023-07-24T13:48:03;5.85;;;4.68;;
32297;SDS011;18782;48.984;8.548;2023-07-24T13:50:31;5.10;;;4.60;;
32297;SDS011;18782;48.984;8.548;2023-07-24T13:52:59;5.60;;;4.25;;
32297;SDS011;18782;48.984;8.548;2023-07-24T13:55:26;5.55;;;4.50;;
32297;SDS011;18782;48.984;8.548;2023-07-24T13:57:55;5.55;;;4.60;;
32297;SDS011;18782;48.984;8.548;2023-07-24T14:00:23;5.25;;;4.22;;
32297;SDS011;18782;48.984;8.548;2023-07-24T14:02:51;5.70;;;4.75;;
32297;SDS011;18782;48.984;8.548;2023-07-24T14:05:18;5.95;;;4.70;;
32297;SDS011;18782;48.984;8.548;2023-07-24T14:07:46;7.70;;;4.32;;
32297;SDS011;18782;48.984;8.548;2023-07-24T14:10:14;4.90;;;4.30;;
32297;SDS011;18782;48.984;8.548;2023-07-24T14:12:41;4.22;;;3.83;;
32297;SDS011;18782;48.984;8.548;2023-07-24T14:15:10;5.32;;;4.38;;
32297;SDS011;18782;48.984;8.548;2023-07-24T14:17:38;5.65;;;4.20;;
32297;SDS011;18782;48.984;8.548;2023-07-24T14:20:06;4.90;;;4.40;;
32297;SDS011;18782;48.984;8.548;2023-07-24T14:22:35;4.85;;;4.03;;
32297;SDS011;18782;48.984;8.548;2023-07-24T14:25:03;5.45;;;4.75;;
32297;SDS011;18782;48.984;8.548;2023-07-24T14:27:32;4.82;;;4.40;;
32297;SDS011;18782;48.984;8.548;2023-07-24T14:29:59;4.55;;;4.15;;
32297;SDS011;18782;48.984;8.548;2023-07-24T14:32:29;4.13;;;3.58;;
32297;SDS011;18782;48.984;8.548;2023-07-24T14:34:58;5.60;;;3.83;;
32297;SDS011;18782;48.984;8.548;2023-07-24T14:37:26;4.18;;;3.60;;
32297;SDS011;18782;48.984;8.548;2023-07-24T14:39:53;3.92;;;3.53;;
32297;SDS011;18782;48.984;8.548;2023-07-24T14:42:21;3.83;;;3.42;;
32297;SDS011;18782;48.984;8.548;2023-07-24T14:44:48;4.07;;;3.67;;
32297;SDS011;18782;48.984;8.548;2023-07-24T14:47:16;3.35;;;3.05;;
32297;SDS011;18782;48.984;8.548;2023-07-24T14:49:45;4.30;;;3.22;;
32297;SDS011;18782;48.984;8.548;2023-07-24T14:52:13;3.80;;;3.33;;
32297;SDS011;18782;48.984;8.548;2023-07-24T14:54:41;4.45;;;3.40;;
32297;SDS011;18782;48.984;8.548;2023-07-24T14:57:08;4.45;;;3.50;;
32297;SDS011;18782;48.984;8.548;2023-07-24T14:59:50;4.72;;;3.67;;
32297;SDS011;18782;48.984;8.548;2023-07-24T15:02:18;7.95;;;6.28;;
32297;SDS011;18782;48.984;8.548;2023-07-24T15:04:47;4.45;;;3.30;;
32297;SDS011;18782;48.984;8.548;2023-07-24T15:07:15;6.18;;;3.80;;